Time;durP1;ratioP1;P1;durP2;ratioP2;P2;SDS_P1;SDS_P2;PMS_P1;PMS_P2;Temp;Humidity;BMP_temperature;BMP_pressure;BME280_temperature;BME280_humidity;BME280_pressure;Samples;Min_cycle;Max_cycle;Signal;HPM_P1;HPM_P2
2024/03/06 00:00:07;;;;;;;5.35;2.85;;;;;;;14.87;45.99;101485.41;4900382;29;20043;-65
2024/03/06 00:02:33;;;;;;;4.07;2.47;;;;;;;14.82;44.76;101491.25;4917272;29;20043;-66
2024/03/06 00:04:58;;;;;;;3.47;2.45;;;;;;;14.80;45.65;101490.50;4916167;29;20056;-66
2024/03/06 00:07:24;;;;;;;5.55;2.55;;;;;;;14.77;45.27;101492.66;4917311;29;20461;-66
2024/03/06 00:09:49;;;;;;;3.03;2.17;;;;;;;14.74;45.33;101491.06;4916351;29;20040;-65
2024/03/06 00:12:15;;;;;;;3.03;1.90;;;;;;;14.74;46.24;101496.44;4900095;29;20090;-66
2024/03/06 00:14:40;;;;;;;5.03;2.40;;;;;;;14.72;44.42;101498.44;4922361;29;20115;-66
2024/03/06 00:17:06;;;;;;;3.45;1.90;;;;;;;14.70;45.95;101494.19;4941403;29;20043;-66
2024/03/06 00:19:32;;;;;;;3.20;1.90;;;;;;;14.68;45.78;101493.47;4925515;29;20083;-65
2024/03/06 00:21:58;;;;;;;3.08;2.05;;;;;;;14.71;44.58;101502.16;4940371;29;20031;-65
2024/03/06 00:24:23;;;;;;;2.60;1.85;;;;;;;14.73;45.69;101499.31;4935117;29;20046;-65
2024/03/06 00:26:48;;;;;;;2.72;2.10;;;;;;;14.72;46.43;101493.06;4934942;29;20051;-66
2024/03/06 00:29:14;;;;;;;2.10;1.77;;;;;;;14.76;45.33;101493.63;4934687;29;20060;-66
2024/03/06 00:31:44;;;;;;;2.63;1.73;;;;;;;14.83;46.02;101508.25;4929158;29;20048;-63
2024/03/06 00:34:11;;;;;;;3.00;2.08;;;;;;;14.86;45.41;101507.97;4924261;29;20035;-65
2024/03/06 00:36:36;;;;;;;4.55;2.20;;;;;;;14.90;45.20;101517.50;4909985;29;20040;-64
2024/03/06 00:39:04;;;;;;;5.63;2.15;;;;;;;14.90;45.83;101509.41;4908122;29;20035;-64
2024/03/06 00:41:30;;;;;;;4.63;2.30;;;;;;;14.94;45.42;101516.22;4922398;29;20516;-65
2024/03/06 00:43:55;;;;;;;4.32;1.92;;;;;;;14.96;45.91;101511.56;4925780;29;20098;-64
2024/03/06 00:46:20;;;;;;;2.97;1.98;;;;;;;14.99;46.05;101513.97;4923818;29;20508;-66
2024/03/06 00:48:46;;;;;;;3.25;2.40;;;;;;;15.04;45.73;101520.66;4924757;29;20030;-64
2024/03/06 00:51:11;;;;;;;2.42;2.22;;;;;;;15.05;46.11;101526.88;4925144;29;20139;-64
2024/03/06 00:53:37;;;;;;;4.43;1.70;;;;;;;15.09;46.27;101529.16;4924786;29;20485;-64
2024/03/06 00:56:03;;;;;;;2.70;1.73;;;;;;;15.12;45.49;101533.44;4936726;29;20116;-65
2024/03/06 00:58:28;;;;;;;2.00;1.88;;;;;;;15.13;45.68;101529.75;4936111;29;20122;-64
2024/03/06 01:00:53;;;;;;;3.95;1.85;;;;;;;15.14;46.79;101537.69;4934749;29;20051;-64
2024/03/06 01:03:19;;;;;;;3.53;2.00;;;;;;;15.17;46.85;101536.56;4934635;29;20044;-64
2024/03/06 01:05:45;;;;;;;4.70;2.05;;;;;;;15.19;45.79;101537.25;4934790;29;20628;-64
2024/03/06 01:08:10;;;;;;;3.17;2.05;;;;;;;15.20;45.58;101538.97;4935602;29;20491;-64
2024/03/06 01:10:39;;;;;;;5.55;2.22;;;;;;;15.20;46.29;101536.28;4935142;29;20051;-66
2024/03/06 01:13:04;;;;;;;4.55;2.13;;;;;;;15.17;46.74;101531.16;4918359;29;20051;-64
2024/03/06 01:15:30;;;;;;;4.55;2.80;;;;;;;15.21;45.96;101538.00;4950403;29;20036;-65
2024/03/06 01:17:57;;;;;;;3.40;2.35;;;;;;;15.17;45.76;101525.75;4934244;29;20042;-64
2024/03/06 01:20:22;;;;;;;2.92;2.40;;;;;;;15.18;46.32;101532.00;4918854;29;20032;-64
2024/03/06 01:22:48;;;;;;;3.45;2.03;;;;;;;15.18;46.75;101545.50;4934220;29;20039;-64
2024/03/06 01:25:13;;;;;;;4.90;2.60;;;;;;;15.14;46.17;101544.94;4935514;29;20104;-64
2024/03/06 01:27:38;;;;;;;3.13;2.15;;;;;;;15.10;46.29;101538.13;4934337;29;20047;-64
2024/03/06 01:30:04;;;;;;;3.90;2.10;;;;;;;15.04;45.92;101542.25;4936100;29;20043;-64
2024/03/06 01:32:30;;;;;;;8.57;2.85;;;;;;;15.03;46.13;101545.06;4937958;29;20055;-64
2024/03/06 01:34:55;;;;;;;7.22;2.70;;;;;;;15.00;45.24;101548.88;4937688;29;20127;-64
2024/03/06 01:37:21;;;;;;;7.70;2.65;;;;;;;14.97;46.19;101557.25;4921685;29;20062;-64
2024/03/06 01:39:46;;;;;;;3.13;2.38;;;;;;;14.94;45.54;101551.28;4937541;29;20038;-65
2024/03/06 01:42:11;;;;;;;7.65;2.70;;;;;;;14.89;46.25;101558.94;4937586;29;20039;-64
2024/03/06 01:44:37;;;;;;;7.05;2.42;;;;;;;14.83;45.42;101554.09;4937958;29;20036;-64
2024/03/06 01:47:03;;;;;;;5.78;3.70;;;;;;;14.78;45.38;101559.94;4937959;29;20028;-64
2024/03/06 01:49:29;;;;;;;3.50;2.63;;;;;;;14.74;45.67;101565.75;4938077;29;20050;-64
2024/03/06 01:51:56;;;;;;;6.95;2.70;;;;;;;14.71;46.23;101564.19;4937256;29;20036;-64
2024/03/06 01:54:22;;;;;;;4.30;2.75;;;;;;;14.68;46.22;101566.28;4937467;29;20047;-64
2024/03/06 01:56:48;;;;;;;4.10;3.00;;;;;;;14.62;45.79;101573.09;4938619;29;20032;-64
2024/03/06 01:59:15;;;;;;;2.90;2.50;;;;;;;14.60;45.71;101577.75;4937116;29;20034;-65
2024/03/06 02:01:41;;;;;;;4.72;2.70;;;;;;;14.58;45.47;101583.28;4937937;29;20027;-64
2024/03/06 02:04:07;;;;;;;3.22;2.47;;;;;;;14.57;46.63;101580.75;4937045;28;20024;-65
2024/03/06 02:06:33;;;;;;;4.65;2.92;;;;;;;14.55;45.73;101583.56;4921221;29;20395;-64
2024/03/06 02:08:58;;;;;;;4.63;2.75;;;;;;;14.55;46.00;101588.94;4921117;29;20106;-64
2024/03/06 02:11:24;;;;;;;5.78;3.03;;;;;;;14.52;45.71;101583.81;4937107;29;20055;-65
2024/03/06 02:13:50;;;;;;;13.20;2.65;;;;;;;14.53;46.50;101585.53;4936955;29;20020;-64
2024/03/06 02:16:15;;;;;;;5.40;2.20;;;;;;;14.53;45.16;101588.25;4937003;29;20440;-64
2024/03/06 02:18:54;;;;;;;5.25;2.75;;;;;;;14.53;46.47;101587.38;4938174;29;20026;-64
2024/03/06 02:21:21;;;;;;;4.75;2.40;;;;;;;14.51;45.77;101587.53;4936855;29;20036;-64
2024/03/06 02:23:46;;;;;;;2.67;2.47;;;;;;;14.51;44.97;101581.28;4936676;29;20067;-64
2024/03/06 02:26:11;;;;;;;4.18;2.50;;;;;;;14.54;44.94;101587.22;4920897;29;20051;-64
2024/03/06 02:28:37;;;;;;;6.30;2.17;;;;;;;14.57;45.84;101595.06;4936636;29;20122;-64
2024/03/06 02:31:03;;;;;;;7.10;2.50;;;;;;;14.57;45.70;101584.25;4936736;29;20032;-64
2024/03/06 02:33:29;;;;;;;2.53;2.20;;;;;;;14.60;46.49;101588.53;4938065;29;20054;-64
2024/03/06 02:35:54;;;;;;;5.53;2.50;;;;;;;14.61;46.15;101587.56;4936442;29;20493;-64
2024/03/06 02:38:20;;;;;;;3.72;2.58;;;;;;;14.63;45.88;101582.88;4936816;29;20046;-64
2024/03/06 02:40:45;;;;;;;3.03;2.28;;;;;;;14.64;45.78;101586.41;4951289;28;20395;-64
2024/03/06 02:43:10;;;;;;;4.47;2.45;;;;;;;14.65;45.65;101585.44;4937569;29;20043;-65
2024/03/06 02:45:36;;;;;;;7.13;2.15;;;;;;;14.63;45.00;101579.34;4936324;29;20040;-65
2024/03/06 02:48:01;;;;;;;5.30;2.60;;;;;;;14.62;45.95;101586.56;4937621;29;20043;-65
2024/03/06 02:50:26;;;;;;;4.22;1.92;;;;;;;14.60;46.18;101588.53;4937262;29;20027;-64
2024/03/06 02:52:53;;;;;;;4.18;1.95;;;;;;;14.58;46.26;101577.91;4937604;29;20039;-65
2024/03/06 02:55:18;;;;;;;2.67;1.90;;;;;;;14.55;46.58;101582.69;4937384;29;20040;-65
2024/03/06 02:57:44;;;;;;;3.53;1.83;;;;;;;14.51;45.37;101576.75;4936080;29;20035;-64
2024/03/06 03:00:13;;;;;;;8.88;2.20;;;;;;;14.46;45.86;101570.88;4952129;29;20040;-64
2024/03/06 03:02:41;;;;;;;3.28;1.92;;;;;;;14.40;45.79;101573.28;4937136;29;20032;-65
2024/03/06 03:05:06;;;;;;;3.08;2.20;;;;;;;14.36;44.89;101582.63;4937146;29;20087;-65
2024/03/06 03:07:32;;;;;;;3.25;1.52;;;;;;;14.27;45.82;101584.25;4936045;29;20036;-65
2024/03/06 03:09:57;;;;;;;4.78;1.98;;;;;;;14.27;44.54;101583.38;4936230;29;20031;-64
2024/03/06 03:12:23;;;;;;;2.65;1.83;;;;;;;14.19;45.20;101570.59;4952076;29;20091;-64
2024/03/06 03:14:48;;;;;;;5.95;1.80;;;;;;;14.20;44.98;101584.94;4935788;29;20404;-64
2024/03/06 03:17:15;;;;;;;4.60;1.60;;;;;;;14.18;44.84;101589.59;4936174;29;20086;-64
2024/03/06 03:19:40;;;;;;;2.90;1.83;;;;;;;14.17;44.75;101588.75;4951635;29;20123;-64
2024/03/06 03:22:06;;;;;;;5.35;1.83;;;;;;;14.12;45.64;101574.81;4951857;29;20127;-65
2024/03/06 03:24:31;;;;;;;6.60;2.13;;;;;;;14.12;45.22;101588.31;4936840;29;20115;-64
2024/03/06 03:26:56;;;;;;;6.35;1.80;;;;;;;14.09;45.71;101588.56;4935477;29;20038;-64
2024/03/06 03:29:22;;;;;;;3.60;1.67;;;;;;;14.06;44.53;101580.75;4935794;29;20038;-64
2024/03/06 03:31:47;;;;;;;1.60;1.33;;;;;;;14.01;45.34;101583.81;4935507;29;20115;-64
2024/03/06 03:34:13;;;;;;;4.22;1.17;;;;;;;13.98;44.73;101588.63;4935296;29;20051;-64
2024/03/06 03:36:42;;;;;;;3.38;1.27;;;;;;;13.95;45.03;101591.59;4936721;29;20035;-65
2024/03/06 03:39:15;;;;;;;1.58;1.38;;;;;;;13.90;45.22;101599.22;4936231;29;20120;-64
2024/03/06 03:41:48;;;;;;;2.35;1.60;;;;;;;13.84;44.68;101594.34;4936717;29;20101;-64
2024/03/06 03:44:18;;;;;;;1.98;1.70;;;;;;;13.74;45.51;101588.03;4935376;29;20036;-64
2024/03/06 03:46:44;;;;;;;4.00;2.25;;;;;;;13.69;45.57;101603.72;4935270;29;20040;-64
2024/03/06 03:49:09;;;;;;;2.63;1.50;;;;;;;13.59;44.54;101597.44;4935442;29;20036;-64
2024/03/06 03:51:35;;;;;;;3.97;1.45;;;;;;;13.54;44.41;101605.03;4936333;29;20055;-64
2024/03/06 03:54:02;;;;;;;2.25;1.60;;;;;;;13.46;45.45;101613.75;4936340;29;20096;-64
2024/03/06 03:56:27;;;;;;;7.38;2.15;;;;;;;13.41;45.52;101613.28;4936459;29;20122;-64
2024/03/06 03:58:52;;;;;;;2.38;1.65;;;;;;;13.35;45.08;101613.78;4935222;29;20119;-65
2024/03/06 04:01:18;;;;;;;2.72;1.70;;;;;;;13.26;44.62;101607.31;4935121;29;20043;-64
2024/03/06 04:03:44;;;;;;;2.80;2.10;;;;;;;13.21;45.15;101614.94;4936207;29;20039;-64
2024/03/06 04:06:10;;;;;;;5.60;1.73;;;;;;;13.16;45.72;101617.16;4934973;29;20039;-64
2024/03/06 04:08:35;;;;;;;3.50;2.13;;;;;;;13.12;44.63;101623.75;4935312;29;20038;-64
2024/03/06 04:11:00;;;;;;;3.50;2.20;;;;;;;13.07;44.24;101622.38;4935051;29;20035;-64
2024/03/06 04:13:26;;;;;;;3.13;2.17;;;;;;;13.02;45.16;101625.47;4934993;29;20083;-64
2024/03/06 04:15:51;;;;;;;3.33;2.72;;;;;;;12.99;45.71;101632.91;4935038;29;20039;-64
2024/03/06 04:18:17;;;;;;;4.82;2.03;;;;;;;12.97;44.34;101645.66;4934928;29;20504;-64
2024/03/06 04:20:42;;;;;;;5.82;1.95;;;;;;;12.92;44.44;101646.03;4950811;29;20040;-64
2024/03/06 04:23:07;;;;;;;5.03;2.13;;;;;;;12.86;45.14;101651.91;4934578;29;20043;-64
2024/03/06 04:25:33;;;;;;;3.15;1.90;;;;;;;12.80;44.88;101647.00;4919046;29;20055;-64
2024/03/06 04:27:58;;;;;;;2.83;1.95;;;;;;;12.76;45.44;101656.28;4936690;29;20079;-64
2024/03/06 04:30:24;;;;;;;2.70;2.03;;;;;;;12.69;44.48;101649.69;4935345;29;20028;-64
2024/03/06 04:32:50;;;;;;;3.10;1.85;;;;;;;12.66;45.06;101661.56;4934630;29;20106;-64
2024/03/06 04:35:15;;;;;;;5.68;1.83;;;;;;;12.62;44.90;101653.84;4934334;29;20519;-64
2024/03/06 04:37:41;;;;;;;6.28;2.13;;;;;;;12.57;44.46;101659.59;4934401;29;20393;-64
2024/03/06 04:40:07;;;;;;;3.22;1.83;;;;;;;12.55;45.11;101669.63;4935714;29;20459;-64
2024/03/06 04:42:35;;;;;;;3.78;1.83;;;;;;;12.51;44.74;101667.28;4934708;29;20043;-64
2024/03/06 04:45:08;;;;;;;3.40;2.10;;;;;;;12.49;45.77;101674.59;4935667;29;20071;-64
2024/03/06 04:47:34;;;;;;;2.20;2.00;;;;;;;12.41;44.49;101672.53;4934475;29;20644;-64
2024/03/06 04:49:59;;;;;;;3.03;1.88;;;;;;;12.40;44.78;101681.56;4934471;29;20119;-64
2024/03/06 04:52:24;;;;;;;4.25;2.10;;;;;;;12.36;45.57;101673.88;4934368;29;20567;-63
2024/03/06 04:54:50;;;;;;;4.55;1.65;;;;;;;12.28;44.69;101663.72;4918650;29;20032;-64
2024/03/06 04:57:16;;;;;;;2.35;1.73;;;;;;;12.25;44.94;101674.72;4935093;29;20036;-64
2024/03/06 04:59:42;;;;;;;3.85;1.77;;;;;;;12.19;45.03;101678.72;4936546;29;20039;-64
2024/03/06 05:02:08;;;;;;;3.25;2.15;;;;;;;12.13;44.66;101681.03;4918545;29;20385;-63
2024/03/06 05:04:34;;;;;;;10.55;1.98;;;;;;;12.08;44.39;101678.72;4919478;29;20032;-64
2024/03/06 05:06:59;;;;;;;10.57;2.33;;;;;;;12.03;44.49;101675.50;4922274;29;20039;-64
2024/03/06 05:09:24;;;;;;;6.40;1.77;;;;;;;12.00;45.20;101682.94;4938192;29;20035;-64
2024/03/06 05:11:50;;;;;;;5.28;1.65;;;;;;;12.01;45.18;101692.69;4939445;29;20130;-64
2024/03/06 05:14:16;;;;;;;4.57;1.98;;;;;;;11.99;44.53;101687.47;4939444;29;20051;-64
2024/03/06 05:16:41;;;;;;;3.78;1.83;;;;;;;11.95;44.29;101696.69;4922955;29;20110;-64
2024/03/06 05:19:07;;;;;;;2.85;1.80;;;;;;;11.94;45.29;101695.00;4937965;29;20118;-64
2024/03/06 05:21:33;;;;;;;2.63;1.83;;;;;;;11.92;44.80;101696.09;4922284;29;20036;-64
2024/03/06 05:23:58;;;;;;;5.15;1.63;;;;;;;11.91;44.99;101705.97;4938131;29;20032;-64
2024/03/06 05:26:24;;;;;;;1.98;1.48;;;;;;;11.90;44.75;101703.41;4937809;29;20043;-64
2024/03/06 05:28:49;;;;;;;1.58;1.45;;;;;;;11.89;45.06;101701.72;4938240;29;20499;-64
2024/03/06 05:31:19;;;;;;;5.47;1.90;;;;;;;11.91;44.56;101710.50;4937954;29;20047;-65
2024/03/06 05:33:47;;;;;;;1.65;1.50;;;;;;;11.89;44.81;101707.91;4953791;28;20075;-64
2024/03/06 05:36:15;;;;;;;3.65;2.05;;;;;;;11.89;45.31;101712.44;4921844;29;20047;-65
2024/03/06 05:38:41;;;;;;;1.70;1.20;;;;;;;11.82;44.82;101712.03;4938947;29;20046;-65
2024/03/06 05:41:08;;;;;;;1.55;1.42;;;;;;;11.77;44.42;101724.97;4924918;29;20591;-64
2024/03/06 05:43:33;;;;;;;3.05;1.75;;;;;;;11.72;44.61;101727.13;4902853;29;20042;-64
2024/03/06 05:45:58;;;;;;;4.45;1.70;;;;;;;11.68;44.94;101731.81;4919551;29;20119;-64
2024/03/06 05:48:24;;;;;;;1.92;1.65;;;;;;;11.65;44.95;101736.56;4918697;29;20040;-64
2024/03/06 05:50:49;;;;;;;6.40;1.48;;;;;;;11.61;44.83;101745.81;4902586;29;20519;-64
2024/03/06 05:53:15;;;;;;;4.30;2.03;;;;;;;11.59;45.03;101747.75;4919776;29;20048;-64
2024/03/06 05:55:40;;;;;;;6.20;1.70;;;;;;;11.57;45.49;101744.31;4919663;29;20469;-64
2024/03/06 05:58:05;;;;;;;7.53;1.90;;;;;;;11.59;45.34;101753.09;4919431;29;20563;-64
2024/03/06 06:00:31;;;;;;;2.22;1.40;;;;;;;11.55;44.48;101751.63;4918378;29;20040;-65
2024/03/06 06:02:56;;;;;;;4.10;1.42;;;;;;;11.54;44.47;101760.66;4902469;29;20055;-64
2024/03/06 06:05:22;;;;;;;5.05;2.33;;;;;;;11.53;44.24;101758.94;4904298;29;20040;-65
2024/03/06 06:07:48;;;;;;;3.90;1.80;;;;;;;11.52;45.08;101762.59;4918561;29;20044;-65
2024/03/06 06:10:14;;;;;;;2.72;1.77;;;;;;;11.50;45.08;101761.84;4919516;29;20044;-65
2024/03/06 06:12:39;;;;;;;4.47;2.42;;;;;;;11.45;44.45;101761.31;4918423;29;20040;-64
2024/03/06 06:15:07;;;;;;;2.80;1.52;;;;;;;11.44;45.27;101764.97;4919386;29;20083;-64
2024/03/06 06:17:32;;;;;;;2.20;1.40;;;;;;;11.45;45.14;101777.41;4918643;29;20436;-64
2024/03/06 06:19:58;;;;;;;7.82;2.15;;;;;;;11.43;44.70;101771.31;4919443;29;20496;-65
2024/03/06 06:22:23;;;;;;;3.17;1.95;;;;;;;11.41;45.21;101776.78;4902120;29;20040;-65
2024/03/06 06:24:49;;;;;;;2.30;1.55;;;;;;;11.45;44.97;101789.00;4917549;29;20498;-64
2024/03/06 06:27:14;;;;;;;3.28;1.50;;;;;;;11.43;44.41;101779.34;4917755;29;20036;-64
2024/03/06 06:29:41;;;;;;;1.50;1.40;;;;;;;11.49;45.45;101793.19;4917714;29;20036;-64
2024/03/06 06:32:07;;;;;;;3.95;1.67;;;;;;;11.50;44.76;101786.00;4918910;29;20047;-65
2024/03/06 06:34:32;;;;;;;3.42;1.77;;;;;;;11.51;44.54;101793.94;4934330;29;20044;-65
2024/03/06 06:36:57;;;;;;;7.00;1.98;;;;;;;11.54;45.44;101800.91;4937254;29;20399;-65
2024/03/06 06:39:23;;;;;;;6.38;1.98;;;;;;;11.54;44.86;101795.53;4936436;29;20042;-64
2024/03/06 06:41:48;;;;;;;6.32;2.28;;;;;;;11.59;45.10;101807.63;4936500;29;20035;-64
2024/03/06 06:44:13;;;;;;;5.15;1.60;;;;;;;11.59;45.13;101804.94;4937629;29;20036;-65
2024/03/06 06:46:39;;;;;;;4.95;2.55;;;;;;;11.64;44.83;101815.38;4937713;29;20056;-64
2024/03/06 06:49:04;;;;;;;3.60;2.63;;;;;;;11.64;45.47;101810.00;4936618;29;20067;-63
2024/03/06 06:51:30;;;;;;;2.28;1.55;;;;;;;11.72;44.92;101817.53;4937460;29;20039;-62
2024/03/06 06:53:55;;;;;;;4.03;1.67;;;;;;;11.84;45.43;101820.16;4921001;29;20036;-64
2024/03/06 06:56:23;;;;;;;2.72;1.67;;;;;;;11.94;45.09;101826.56;4936183;29;20408;-64
2024/03/06 06:58:49;;;;;;;2.53;2.08;;;;;;;12.03;44.19;101823.19;4920307;29;20452;-65
2024/03/06 07:01:16;;;;;;;5.57;1.73;;;;;;;12.15;45.40;101818.72;4935903;29;20027;-65
2024/03/06 07:03:42;;;;;;;3.58;1.95;;;;;;;12.23;45.02;101825.25;4937065;29;20027;-64
2024/03/06 07:06:07;;;;;;;7.70;1.90;;;;;;;12.35;44.46;101830.66;4920134;29;20042;-64
2024/03/06 07:08:33;;;;;;;2.45;1.58;;;;;;;12.45;44.41;101829.00;4920014;29;20028;-64
2024/03/06 07:10:58;;;;;;;2.15;1.75;;;;;;;12.53;45.14;101827.44;4935958;29;20476;-64
2024/03/06 07:13:24;;;;;;;3.17;1.70;;;;;;;12.66;44.33;101830.03;4935771;29;20032;-65
2024/03/06 07:15:49;;;;;;;3.22;1.98;;;;;;;12.74;45.14;101831.16;4935830;29;20027;-64
2024/03/06 07:18:14;;;;;;;2.88;1.90;;;;;;;12.78;45.27;101834.47;4919935;29;20062;-64
2024/03/06 07:20:40;;;;;;;5.55;1.90;;;;;;;12.81;45.25;101829.69;4936883;29;20464;-64
2024/03/06 07:23:06;;;;;;;3.38;2.30;;;;;;;12.87;44.89;101836.44;4936972;29;20106;-65
2024/03/06 07:25:31;;;;;;;3.33;1.60;;;;;;;12.98;45.24;101849.06;4936729;29;20023;-64
2024/03/06 07:27:57;;;;;;;3.15;2.05;;;;;;;13.06;44.71;101841.25;4936086;29;20035;-64
2024/03/06 07:30:22;;;;;;;1.80;1.70;;;;;;;13.25;44.92;101842.41;4935483;29;20101;-64
2024/03/06 07:32:48;;;;;;;3.28;2.13;;;;;;;13.47;45.47;101846.94;4936694;29;20031;-65
2024/03/06 07:35:13;;;;;;;7.97;3.05;;;;;;;13.71;44.26;101854.84;4935405;29;20083;-64
2024/03/06 07:37:39;;;;;;;3.25;1.90;;;;;;;13.90;43.68;101855.09;4936257;29;20030;-64
2024/03/06 07:40:09;;;;;;;3.13;1.70;;;;;;;14.11;44.06;101853.31;4935588;29;20075;-65
2024/03/06 07:42:34;;;;;;;3.25;2.15;;;;;;;14.33;43.51;101855.09;4938487;29;20545;-65
2024/03/06 07:45:00;;;;;;;2.25;1.95;;;;;;;14.53;44.56;101857.00;4937033;29;20114;-65
2024/03/06 07:47:25;;;;;;;3.50;2.15;;;;;;;14.74;45.08;101857.03;4936684;29;20032;-65
2024/03/06 07:49:52;;;;;;;3.60;2.08;;;;;;;14.97;43.33;101866.69;4935330;29;20167;-65
2024/03/06 07:52:17;;;;;;;3.80;2.10;;;;;;;15.15;44.53;101874.06;4935534;29;20098;-65
2024/03/06 07:54:42;;;;;;;2.00;1.67;;;;;;;15.33;43.64;101871.59;4936367;29;20032;-65
2024/03/06 07:57:09;;;;;;;2.28;1.73;;;;;;;15.47;43.02;101859.59;4919360;29;20146;-65
2024/03/06 07:59:35;;;;;;;4.65;2.03;;;;;;;15.76;44.46;101870.53;4919531;29;20484;-65
2024/03/06 08:02:01;;;;;;;3.53;2.13;;;;;;;15.93;43.02;101873.44;4919447;29;20091;-65
2024/03/06 08:04:27;;;;;;;5.20;2.40;;;;;;;16.08;43.83;101868.50;4919169;28;20063;-65
2024/03/06 08:06:52;;;;;;;8.52;2.22;;;;;;;16.22;43.18;101866.22;4936401;29;20403;-64
2024/03/06 08:09:19;;;;;;;6.57;2.60;;;;;;;16.48;43.30;101865.66;4934951;29;20119;-66
2024/03/06 08:11:45;;;;;;;4.85;2.15;;;;;;;16.69;42.63;101870.00;4935134;29;20032;-65
2024/03/06 08:14:10;;;;;;;5.45;2.22;;;;;;;16.83;42.68;101869.53;4934800;29;20028;-65
2024/03/06 08:16:37;;;;;;;5.53;1.88;;;;;;;17.02;43.14;101873.22;4935018;29;20436;-64
2024/03/06 08:19:02;;;;;;;4.82;2.05;;;;;;;17.20;42.33;101874.16;4935293;29;20505;-65
2024/03/06 08:21:27;;;;;;;2.03;1.55;;;;;;;17.49;42.38;101885.78;4934597;29;20043;-65
2024/03/06 08:23:53;;;;;;;2.63;2.08;;;;;;;17.76;41.77;101884.97;4934977;29;20102;-65
2024/03/06 08:26:19;;;;;;;5.15;2.42;;;;;;;18.01;41.86;101882.44;4934942;29;20175;-64
2024/03/06 08:28:44;;;;;;;3.15;2.17;;;;;;;18.28;41.73;101894.25;4936153;29;20028;-65
2024/03/06 08:31:10;;;;;;;5.05;2.20;;;;;;;18.38;41.74;101889.63;4935051;29;20038;-64
2024/03/06 08:33:35;;;;;;;3.28;2.38;;;;;;;18.51;41.43;101890.09;4936088;29;20118;-64
2024/03/06 08:36:01;;;;;;;2.67;1.77;;;;;;;18.78;41.37;101892.75;4934385;29;20061;-65
2024/03/06 08:38:26;;;;;;;4.00;1.88;;;;;;;19.01;41.39;101888.53;4934783;29;20031;-64
2024/03/06 08:40:52;;;;;;;4.80;2.10;;;;;;;19.25;41.13;101900.59;4934515;29;20036;-64
2024/03/06 08:43:19;;;;;;;5.30;2.67;;;;;;;19.47;40.71;101891.94;4935816;28;20036;-64
2024/03/06 08:45:44;;;;;;;2.47;1.63;;;;;;;19.72;40.10;101899.22;4935748;29;20474;-65
2024/03/06 08:48:11;;;;;;;3.33;2.17;;;;;;;19.96;40.33;101896.59;4918523;29;20167;-64
2024/03/06 08:50:36;;;;;;;3.35;2.00;;;;;;;20.20;39.83;101899.41;4934420;29;20027;-65
2024/03/06 08:53:02;;;;;;;5.25;2.20;;;;;;;20.45;39.97;101907.66;4935520;29;20123;-64
2024/03/06 08:55:28;;;;;;;7.10;2.75;;;;;;;20.63;39.70;101911.13;4934238;29;20419;-65
2024/03/06 08:57:53;;;;;;;6.47;2.88;;;;;;;20.82;39.17;101908.06;4935598;29;20028;-64
2024/03/06 09:00:19;;;;;;;7.55;3.67;;;;;;;21.03;38.84;101908.41;4934418;29;20039;-64
2024/03/06 09:02:44;;;;;;;5.82;2.53;;;;;;;21.21;39.31;101906.41;4934376;29;20428;-65
2024/03/06 09:05:12;;;;;;;5.78;2.90;;;;;;;21.42;38.36;101909.41;4935639;29;20032;-65
2024/03/06 09:07:40;;;;;;;12.93;2.90;;;;;;;21.54;38.08;101906.31;4935616;29;20039;-65
2024/03/06 09:10:09;;;;;;;7.72;2.78;;;;;;;21.69;38.19;101915.50;4934541;29;20452;-65
2024/03/06 09:12:35;;;;;;;5.78;2.15;;;;;;;21.89;38.59;101916.81;4918579;29;20039;-66
2024/03/06 09:15:01;;;;;;;3.35;1.77;;;;;;;22.07;37.87;101913.84;4935679;29;20223;-65
2024/03/06 09:17:27;;;;;;;4.78;2.03;;;;;;;22.27;38.26;101921.44;4934292;29;20035;-66
2024/03/06 09:19:53;;;;;;;3.22;1.83;;;;;;;22.47;37.40;101917.19;4935625;29;20036;-65
2024/03/06 09:22:19;;;;;;;3.47;1.77;;;;;;;22.69;37.49;101925.66;4917991;29;20504;-65
2024/03/06 09:24:44;;;;;;;2.45;1.90;;;;;;;22.88;37.32;101920.53;4933905;29;20074;-65
2024/03/06 09:27:10;;;;;;;3.65;1.65;;;;;;;23.08;37.15;101918.16;4935595;29;20051;-65
2024/03/06 09:29:35;;;;;;;5.28;1.90;;;;;;;23.28;36.43;101929.44;4935711;29;20503;-66
2024/03/06 09:32:01;;;;;;;3.55;2.10;;;;;;;23.40;36.61;101919.75;4933955;29;20550;-65
2024/03/06 09:34:26;;;;;;;4.40;1.63;;;;;;;23.57;36.77;101919.41;4935092;29;20047;-65
2024/03/06 09:36:51;;;;;;;6.78;1.90;;;;;;;23.73;36.14;101921.09;4933931;29;20039;-65
2024/03/06 09:39:22;;;;;;;3.50;1.88;;;;;;;23.99;35.42;101926.09;4934036;29;20526;-65
2024/03/06 09:41:48;;;;;;;4.05;2.28;;;;;;;24.48;35.67;101924.47;4934075;29;20453;-65
2024/03/06 09:44:14;;;;;;;8.65;2.13;;;;;;;25.33;34.86;101938.19;4933846;29;20042;-66
2024/03/06 09:46:49;;;;;;;4.38;2.38;;;;;;;27.86;31.36;101926.56;4933930;29;20060;-67
2024/03/06 09:49:16;;;;;;;4.03;2.05;;;;;;;28.29;30.52;101919.41;4934078;29;20094;-66
2024/03/06 09:51:52;;;;;;;3.42;2.00;;;;;;;27.70;31.90;101924.25;4937805;29;20123;-66
2024/03/06 09:54:18;;;;;;;3.13;2.30;;;;;;;27.45;31.96;101925.97;4922104;29;20039;-67
2024/03/06 09:56:44;;;;;;;4.85;2.78;;;;;;;27.46;32.58;101933.19;4937101;29;20090;-67
2024/03/06 09:59:10;;;;;;;5.45;2.08;;;;;;;27.54;32.33;101930.19;4937190;29;20500;-67
2024/03/06 10:01:41;;;;;;;2.97;1.80;;;;;;;27.70;31.77;101935.25;4938288;29;20071;-66
2024/03/06 10:04:19;;;;;;;4.40;2.38;;;;;;;27.86;32.07;101940.31;4921213;29;20043;-66
2024/03/06 10:06:46;;;;;;;2.58;2.35;;;;;;;28.07;32.06;101942.81;4936932;29;20130;-68
2024/03/06 10:09:11;;;;;;;4.10;2.30;;;;;;;28.28;31.44;101934.25;4936923;29;20051;-68
2024/03/06 10:11:42;;;;;;;5.35;1.90;;;;;;;28.49;31.16;101946.03;4936935;29;20047;-69
2024/03/06 10:14:07;;;;;;;5.15;2.50;;;;;;;28.68;31.07;101945.97;4936989;29;20127;-68
2024/03/06 10:16:33;;;;;;;3.67;2.05;;;;;;;28.91;30.40;101944.56;4936827;29;20055;-67
2024/03/06 10:19:16;;;;;;;6.55;2.30;;;;;;;29.09;29.77;101945.47;4936844;29;20044;-67
2024/03/06 10:21:44;;;;;;;5.57;2.08;;;;;;;29.21;30.29;101951.09;4936795;29;20102;-68
2024/03/06 10:24:09;;;;;;;2.60;1.63;;;;;;;29.37;30.07;101950.56;4937865;29;20036;-66
2024/03/06 10:26:35;;;;;;;5.50;2.10;;;;;;;29.53;29.95;101949.19;4936557;29;20039;-67
2024/03/06 10:29:01;;;;;;;5.97;2.20;;;;;;;29.66;29.32;101954.56;4920633;29;20499;-67
2024/03/06 10:31:30;;;;;;;3.95;2.03;;;;;;;29.79;29.14;101954.44;4936622;29;20119;-67
2024/03/06 10:33:55;;;;;;;3.33;2.15;;;;;;;29.87;28.84;101951.44;4920587;29;20404;-69
2024/03/06 10:36:21;;;;;;;4.57;1.90;;;;;;;29.89;28.80;101952.03;4920389;29;20046;-68
2024/03/06 10:38:48;;;;;;;3.15;1.75;;;;;;;29.91;28.85;101953.50;4920293;29;20039;-69
2024/03/06 10:41:15;;;;;;;5.45;1.75;;;;;;;29.89;28.50;101943.75;4935920;29;20024;-69
2024/03/06 10:43:43;;;;;;;4.60;1.98;;;;;;;29.85;27.80;101943.34;4920168;29;20023;-67
2024/03/06 10:46:10;;;;;;;6.20;2.38;;;;;;;29.93;28.76;101944.94;4919998;29;20399;-67
2024/03/06 10:48:37;;;;;;;5.88;2.17;;;;;;;30.04;28.26;101951.66;4936257;29;20063;-68
2024/03/06 10:51:03;;;;;;;3.20;1.75;;;;;;;30.15;28.07;101945.38;4935949;28;20074;-68
2024/03/06 10:53:29;;;;;;;3.20;2.25;;;;;;;30.20;28.06;101951.88;4936232;29;20082;-68
2024/03/06 10:55:56;;;;;;;4.28;1.75;;;;;;;30.05;28.19;101945.88;4936151;29;20027;-68
2024/03/06 10:58:22;;;;;;;2.22;1.98;;;;;;;29.03;28.87;101957.44;4935887;29;20627;-68
2024/03/06 11:00:48;;;;;;;4.70;2.08;;;;;;;29.34;28.24;101962.09;4920112;29;20024;-69
2024/03/06 11:03:14;;;;;;;2.85;1.52;;;;;;;29.49;27.76;101945.16;4934987;28;20043;-67
2024/03/06 11:05:46;;;;;;;1.83;1.30;;;;;;;29.71;27.95;101946.44;4935935;29;20036;-67
2024/03/06 11:08:13;;;;;;;5.80;2.33;;;;;;;29.95;27.18;101948.34;4935935;29;20377;-67
2024/03/06 11:10:40;;;;;;;2.33;1.83;;;;;;;30.22;27.36;101948.88;4919894;29;20060;-66
2024/03/06 11:13:12;;;;;;;4.80;1.50;;;;;;;30.47;27.41;101961.56;4935705;29;20032;-67
2024/03/06 11:15:37;;;;;;;3.35;1.60;;;;;;;30.61;27.35;101958.59;4937076;29;20055;-66
2024/03/06 11:18:28;;;;;;;2.45;1.52;;;;;;;30.81;27.34;101964.72;4936888;29;20057;-68